sensor_id;sensor_type;location;lat;lon;timestamp;P1;durP1;ratioP1;P2;durP2;ratioP2
8001;SDS011;4046;48.774;8.732;2023-07-02T00:01:23;1.70;;;1.60;;
8001;SDS011;4046;48.774;8.732;2023-07-02T00:03:49;2.00;;;1.90;;
8001;SDS011;4046;48.774;8.732;2023-07-02T00:06:15;1.90;;;1.80;;
8001;SDS011;4046;48.774;8.732;2023-07-02T00:08:42;1.83;;;1.73;;
8001;SDS011;4046;48.774;8.732;2023-07-02T00:11:08;1.97;;;1.87;;
8001;SDS011;4046;48.774;8.732;2023-07-02T00:13:38;1.40;;;1.30;;
8001;SDS011;4046;48.774;8.732;2023-07-02T00:16:04;1.97;;;1.60;;
8001;SDS011;4046;48.774;8.732;2023-07-02T00:18:30;1.50;;;1.40;;
8001;SDS011;4046;48.774;8.732;2023-07-02T00:21:02;1.80;;;1.70;;
8001;SDS011;4046;48.774;8.732;2023-07-02T00:23:29;1.90;;;1.80;;
8001;SDS011;4046;48.774;8.732;2023-07-02T00:25:57;4.03;;;1.50;;
8001;SDS011;4046;48.774;8.732;2023-07-02T00:28:23;1.80;;;1.70;;
8001;SDS011;4046;48.774;8.732;2023-07-02T00:30:50;2.00;;;1.90;;
8001;SDS011;4046;48.774;8.732;2023-07-02T00:33:16;2.07;;;1.30;;
8001;SDS011;4046;48.774;8.732;2023-07-02T00:35:42;1.73;;;1.63;;
8001;SDS011;4046;48.774;8.732;2023-07-02T00:38:08;1.83;;;1.73;;
8001;SDS011;4046;48.774;8.732;2023-07-02T00:40:34;1.90;;;1.80;;
8001;SDS011;4046;48.774;8.732;2023-07-02T00:43:00;1.77;;;1.67;;
8001;SDS011;4046;48.774;8.732;2023-07-02T00:45:26;2.30;;;1.60;;
8001;SDS011;4046;48.774;8.732;2023-07-02T00:47:53;2.13;;;1.93;;
8001;SDS011;4046;48.774;8.732;2023-07-02T00:50:21;1.80;;;1.70;;
8001;SDS011;4046;48.774;8.732;2023-07-02T00:52:48;1.60;;;1.50;;
8001;SDS011;4046;48.774;8.732;2023-07-02T00:55:14;1.57;;;1.47;;
8001;SDS011;4046;48.774;8.732;2023-07-02T00:57:41;2.53;;;1.70;;
8001;SDS011;4046;48.774;8.732;2023-07-02T01:00:11;2.07;;;1.83;;
8001;SDS011;4046;48.774;8.732;2023-07-02T01:02:38;1.70;;;1.60;;
8001;SDS011;4046;48.774;8.732;2023-07-02T01:05:15;1.73;;;1.63;;
8001;SDS011;4046;48.774;8.732;2023-07-02T01:07:41;1.93;;;1.83;;
8001;SDS011;4046;48.774;8.732;2023-07-02T01:10:08;1.77;;;1.67;;
8001;SDS011;4046;48.774;8.732;2023-07-02T01:12:34;1.63;;;1.53;;
8001;SDS011;4046;48.774;8.732;2023-07-02T01:15:03;1.80;;;1.70;;
8001;SDS011;4046;48.774;8.732;2023-07-02T01:17:31;1.80;;;1.70;;
8001;SDS011;4046;48.774;8.732;2023-07-02T01:20:02;1.93;;;1.83;;
8001;SDS011;4046;48.774;8.732;2023-07-02T01:22:30;1.53;;;1.43;;
8001;SDS011;4046;48.774;8.732;2023-07-02T01:24:57;1.50;;;1.33;;
8001;SDS011;4046;48.774;8.732;2023-07-02T01:27:24;2.00;;;1.90;;
8001;SDS011;4046;48.774;8.732;2023-07-02T01:29:53;1.70;;;1.60;;
8001;SDS011;4046;48.774;8.732;2023-07-02T01:32:19;1.57;;;1.47;;
8001;SDS011;4046;48.774;8.732;2023-07-02T01:34:45;2.10;;;1.90;;
8001;SDS011;4046;48.774;8.732;2023-07-02T01:37:14;3.03;;;2.00;;
8001;SDS011;4046;48.774;8.732;2023-07-02T01:39:42;1.73;;;1.63;;
8001;SDS011;4046;48.774;8.732;2023-07-02T01:42:09;2.13;;;2.03;;
8001;SDS011;4046;48.774;8.732;2023-07-02T01:44:41;1.60;;;1.50;;
8001;SDS011;4046;48.774;8.732;2023-07-02T01:47:08;2.03;;;1.93;;
8001;SDS011;4046;48.774;8.732;2023-07-02T01:49:35;2.53;;;1.90;;
8001;SDS011;4046;48.774;8.732;2023-07-02T01:52:03;1.97;;;1.87;;
8001;SDS011;4046;48.774;8.732;2023-07-02T01:54:31;1.80;;;1.70;;
8001;SDS011;4046;48.774;8.732;2023-07-02T01:56:57;1.63;;;1.53;;
8001;SDS011;4046;48.774;8.732;2023-07-02T01:59:23;1.83;;;1.60;;
8001;SDS011;4046;48.774;8.732;2023-07-02T02:01:50;2.63;;;2.00;;
8001;SDS011;4046;48.774;8.732;2023-07-02T02:04:17;3.20;;;1.93;;
8001;SDS011;4046;48.774;8.732;2023-07-02T02:06:42;1.93;;;1.50;;
8001;SDS011;4046;48.774;8.732;2023-07-02T02:09:09;1.70;;;1.60;;
8001;SDS011;4046;48.774;8.732;2023-07-02T02:11:38;1.83;;;1.73;;
8001;SDS011;4046;48.774;8.732;2023-07-02T02:14:05;1.73;;;1.63;;
8001;SDS011;4046;48.774;8.732;2023-07-02T02:16:31;1.60;;;1.50;;
8001;SDS011;4046;48.774;8.732;2023-07-02T02:18:59;2.23;;;2.10;;
8001;SDS011;4046;48.774;8.732;2023-07-02T02:21:25;1.90;;;1.80;;
8001;SDS011;4046;48.774;8.732;2023-07-02T02:23:52;1.80;;;1.70;;
8001;SDS011;4046;48.774;8.732;2023-07-02T02:26:17;1.87;;;1.77;;
8001;SDS011;4046;48.774;8.732;2023-07-02T02:28:43;1.90;;;1.80;;
8001;SDS011;4046;48.774;8.732;2023-07-02T02:31:09;1.50;;;1.40;;
8001;SDS011;4046;48.774;8.732;2023-07-02T02:33:35;1.87;;;1.77;;
8001;SDS011;4046;48.774;8.732;2023-07-02T02:36:04;1.97;;;1.80;;
8001;SDS011;4046;48.774;8.732;2023-07-02T02:38:30;2.33;;;2.23;;
8001;SDS011;4046;48.774;8.732;2023-07-02T02:40:56;1.90;;;1.80;;
8001;SDS011;4046;48.774;8.732;2023-07-02T02:43:22;1.90;;;1.80;;
8001;SDS011;4046;48.774;8.732;2023-07-02T02:45:47;2.20;;;2.10;;
8001;SDS011;4046;48.774;8.732;2023-07-02T02:48:13;1.87;;;1.77;;
8001;SDS011;4046;48.774;8.732;2023-07-02T02:50:39;1.90;;;1.80;;
8001;SDS011;4046;48.774;8.732;2023-07-02T02:53:09;1.70;;;1.60;;
8001;SDS011;4046;48.774;8.732;2023-07-02T02:55:35;1.80;;;1.70;;
8001;SDS011;4046;48.774;8.732;2023-07-02T02:58:01;2.13;;;1.70;;
8001;SDS011;4046;48.774;8.732;2023-07-02T03:00:27;2.00;;;1.90;;
8001;SDS011;4046;48.774;8.732;2023-07-02T03:02:53;1.97;;;1.87;;
8001;SDS011;4046;48.774;8.732;2023-07-02T03:05:18;1.70;;;1.60;;
8001;SDS011;4046;48.774;8.732;2023-07-02T03:07:44;1.97;;;1.87;;
8001;SDS011;4046;48.774;8.732;2023-07-02T03:10:11;2.00;;;1.80;;
8001;SDS011;4046;48.774;8.732;2023-07-02T03:12:36;2.00;;;1.90;;
8001;SDS011;4046;48.774;8.732;2023-07-02T03:15:02;1.80;;;1.67;;
8001;SDS011;4046;48.774;8.732;2023-07-02T03:17:28;2.00;;;1.90;;
8001;SDS011;4046;48.774;8.732;2023-07-02T03:19:54;2.00;;;1.90;;
8001;SDS011;4046;48.774;8.732;2023-07-02T03:22:19;2.00;;;1.90;;
8001;SDS011;4046;48.774;8.732;2023-07-02T03:24:46;2.10;;;2.00;;
8001;SDS011;4046;48.774;8.732;2023-07-02T03:27:12;1.97;;;1.87;;
8001;SDS011;4046;48.774;8.732;2023-07-02T03:29:37;1.70;;;1.60;;
8001;SDS011;4046;48.774;8.732;2023-07-02T03:32:03;1.90;;;1.80;;
8001;SDS011;4046;48.774;8.732;2023-07-02T03:34:30;1.50;;;1.40;;
8001;SDS011;4046;48.774;8.732;2023-07-02T03:36:55;2.00;;;1.80;;
8001;SDS011;4046;48.774;8.732;2023-07-02T03:39:21;1.87;;;1.67;;
8001;SDS011;4046;48.774;8.732;2023-07-02T03:41:47;1.73;;;1.63;;
8001;SDS011;4046;48.774;8.732;2023-07-02T03:44:13;2.20;;;2.10;;
8001;SDS011;4046;48.774;8.732;2023-07-02T03:46:39;1.83;;;1.73;;
8001;SDS011;4046;48.774;8.732;2023-07-02T03:49:04;1.93;;;1.80;;
8001;SDS011;4046;48.774;8.732;2023-07-02T03:51:30;2.37;;;1.87;;
8001;SDS011;4046;48.774;8.732;2023-07-02T03:53:57;2.23;;;2.00;;
8001;SDS011;4046;48.774;8.732;2023-07-02T03:56:24;2.20;;;2.00;;
8001;SDS011;4046;48.774;8.732;2023-07-02T03:58:51;1.70;;;1.60;;
8001;SDS011;4046;48.774;8.732;2023-07-02T04:01:17;1.87;;;1.67;;
8001;SDS011;4046;48.774;8.732;2023-07-02T04:03:50;2.23;;;1.97;;
8001;SDS011;4046;48.774;8.732;2023-07-02T04:06:16;1.80;;;1.70;;
8001;SDS011;4046;48.774;8.732;2023-07-02T04:08:43;2.00;;;1.80;;
8001;SDS011;4046;48.774;8.732;2023-07-02T04:11:10;2.23;;;2.00;;
8001;SDS011;4046;48.774;8.732;2023-07-02T04:13:36;1.70;;;1.60;;
8001;SDS011;4046;48.774;8.732;2023-07-02T04:16:02;2.00;;;1.80;;
8001;SDS011;4046;48.774;8.732;2023-07-02T04:18:29;1.90;;;1.80;;
8001;SDS011;4046;48.774;8.732;2023-07-02T04:20:55;1.97;;;1.80;;
8001;SDS011;4046;48.774;8.732;2023-07-02T04:23:21;1.90;;;1.80;;
8001;SDS011;4046;48.774;8.732;2023-07-02T04:25:48;2.20;;;2.10;;
8001;SDS011;4046;48.774;8.732;2023-07-02T04:28:14;1.93;;;1.83;;
8001;SDS011;4046;48.774;8.732;2023-07-02T04:30:40;2.23;;;2.00;;
8001;SDS011;4046;48.774;8.732;2023-07-02T04:33:07;2.03;;;1.93;;
8001;SDS011;4046;48.774;8.732;2023-07-02T04:35:33;2.30;;;1.77;;
8001;SDS011;4046;48.774;8.732;2023-07-02T04:38:00;1.90;;;1.80;;
8001;SDS011;4046;48.774;8.732;2023-07-02T04:40:26;1.80;;;1.70;;
8001;SDS011;4046;48.774;8.732;2023-07-02T04:42:52;2.10;;;2.00;;
8001;SDS011;4046;48.774;8.732;2023-07-02T04:45:23;1.93;;;1.70;;
8001;SDS011;4046;48.774;8.732;2023-07-02T04:47:57;2.17;;;1.80;;
8001;SDS011;4046;48.774;8.732;2023-07-02T04:50:23;1.93;;;1.83;;
8001;SDS011;4046;48.774;8.732;2023-07-02T04:52:48;2.07;;;1.87;;
8001;SDS011;4046;48.774;8.732;2023-07-02T04:55:14;2.00;;;1.90;;
8001;SDS011;4046;48.774;8.732;2023-07-02T04:57:40;1.90;;;1.73;;
8001;SDS011;4046;48.774;8.732;2023-07-02T05:00:06;1.87;;;1.77;;
8001;SDS011;4046;48.774;8.732;2023-07-02T05:02:33;2.03;;;1.93;;
8001;SDS011;4046;48.774;8.732;2023-07-02T05:04:59;2.17;;;1.97;;
8001;SDS011;4046;48.774;8.732;2023-07-02T05:07:26;2.57;;;2.10;;
8001;SDS011;4046;48.774;8.732;2023-07-02T05:09:52;2.40;;;2.20;;
8001;SDS011;4046;48.774;8.732;2023-07-02T05:12:18;2.80;;;2.03;;
8001;SDS011;4046;48.774;8.732;2023-07-02T05:14:44;1.70;;;1.60;;
8001;SDS011;4046;48.774;8.732;2023-07-02T05:17:11;2.00;;;1.80;;
8001;SDS011;4046;48.774;8.732;2023-07-02T05:19:39;1.90;;;1.80;;
8001;SDS011;4046;48.774;8.732;2023-07-02T05:22:06;1.90;;;1.80;;
8001;SDS011;4046;48.774;8.732;2023-07-02T05:24:33;2.07;;;1.97;;
8001;SDS011;4046;48.774;8.732;2023-07-02T05:26:59;2.37;;;2.17;;
8001;SDS011;4046;48.774;8.732;2023-07-02T05:29:25;1.70;;;1.60;;
8001;SDS011;4046;48.774;8.732;2023-07-02T05:31:50;2.03;;;1.83;;
8001;SDS011;4046;48.774;8.732;2023-07-02T05:34:16;5.10;;;1.97;;
8001;SDS011;4046;48.774;8.732;2023-07-02T05:36:42;2.20;;;2.10;;
8001;SDS011;4046;48.774;8.732;2023-07-02T05:39:08;2.20;;;2.00;;
8001;SDS011;4046;48.774;8.732;2023-07-02T05:41:33;2.13;;;1.93;;
8001;SDS011;4046;48.774;8.732;2023-07-02T05:44:00;2.53;;;2.33;;
8001;SDS011;4046;48.774;8.732;2023-07-02T05:46:26;2.23;;;2.07;;
8001;SDS011;4046;48.774;8.732;2023-07-02T05:48:52;2.00;;;1.90;;
8001;SDS011;4046;48.774;8.732;2023-07-02T05:51:21;2.10;;;1.90;;
8001;SDS011;4046;48.774;8.732;2023-07-02T05:53:47;2.10;;;1.90;;
8001;SDS011;4046;48.774;8.732;2023-07-02T05:56:13;2.50;;;2.30;;
8001;SDS011;4046;48.774;8.732;2023-07-02T05:58:39;2.60;;;2.40;;
8001;SDS011;4046;48.774;8.732;2023-07-02T06:01:05;2.60;;;2.40;;
8001;SDS011;4046;48.774;8.732;2023-07-02T06:03:31;2.43;;;2.23;;
8001;SDS011;4046;48.774;8.732;2023-07-02T06:05:58;2.00;;;1.90;;
8001;SDS011;4046;48.774;8.732;2023-07-02T06:08:23;2.57;;;2.20;;
8001;SDS011;4046;48.774;8.732;2023-07-02T06:10:49;3.00;;;2.80;;
8001;SDS011;4046;48.774;8.732;2023-07-02T06:13:16;2.27;;;2.07;;
8001;SDS011;4046;48.774;8.732;2023-07-02T06:15:42;2.40;;;2.20;;
8001;SDS011;4046;48.774;8.732;2023-07-02T06:18:08;2.73;;;2.53;;
8001;SDS011;4046;48.774;8.732;2023-07-02T06:20:34;3.10;;;2.80;;
8001;SDS011;4046;48.774;8.732;2023-07-02T06:23:00;3.57;;;3.27;;
8001;SDS011;4046;48.774;8.732;2023-07-02T06:25:26;2.90;;;2.70;;
8001;SDS011;4046;48.774;8.732;2023-07-02T06:27:52;2.87;;;2.67;;
8001;SDS011;4046;48.774;8.732;2023-07-02T06:30:20;4.27;;;2.90;;
8001;SDS011;4046;48.774;8.732;2023-07-02T06:32:47;4.10;;;3.80;;
8001;SDS011;4046;48.774;8.732;2023-07-02T06:35:14;4.00;;;3.47;;
8001;SDS011;4046;48.774;8.732;2023-07-02T06:37:39;3.60;;;3.30;;
8001;SDS011;4046;48.774;8.732;2023-07-02T06:40:05;3.67;;;3.37;;
8001;SDS011;4046;48.774;8.732;2023-07-02T06:42:32;4.20;;;3.90;;
8001;SDS011;4046;48.774;8.732;2023-07-02T06:44:58;3.80;;;3.50;;
8001;SDS011;4046;48.774;8.732;2023-07-02T06:47:25;4.07;;;3.67;;
8001;SDS011;4046;48.774;8.732;2023-07-02T06:49:52;4.17;;;3.80;;
8001;SDS011;4046;48.774;8.732;2023-07-02T06:52:18;4.30;;;3.90;;
8001;SDS011;4046;48.774;8.732;2023-07-02T06:54:44;5.30;;;4.83;;
8001;SDS011;4046;48.774;8.732;2023-07-02T06:57:09;5.20;;;4.70;;
8001;SDS011;4046;48.774;8.732;2023-07-02T06:59:35;5.20;;;4.67;;
8001;SDS011;4046;48.774;8.732;2023-07-02T07:02:02;4.70;;;4.30;;
8001;SDS011;4046;48.774;8.732;2023-07-02T07:04:28;5.50;;;5.00;;
8001;SDS011;4046;48.774;8.732;2023-07-02T07:06:54;6.33;;;4.80;;
8001;SDS011;4046;48.774;8.732;2023-07-02T07:09:20;5.70;;;5.17;;
8001;SDS011;4046;48.774;8.732;2023-07-02T07:11:47;5.40;;;4.90;;
8001;SDS011;4046;48.774;8.732;2023-07-02T07:14:13;5.50;;;5.00;;
8001;SDS011;4046;48.774;8.732;2023-07-02T07:16:40;5.60;;;4.90;;
8001;SDS011;4046;48.774;8.732;2023-07-02T07:19:06;4.73;;;4.33;;
8001;SDS011;4046;48.774;8.732;2023-07-02T07:21:34;6.23;;;5.20;;
8001;SDS011;4046;48.774;8.732;2023-07-02T07:24:00;5.83;;;5.33;;
8001;SDS011;4046;48.774;8.732;2023-07-02T07:26:26;5.60;;;5.10;;
8001;SDS011;4046;48.774;8.732;2023-07-02T07:28:52;5.93;;;5.27;;
8001;SDS011;4046;48.774;8.732;2023-07-02T07:31:19;5.70;;;5.30;;
8001;SDS011;4046;48.774;8.732;2023-07-02T07:33:46;6.83;;;5.47;;
8001;SDS011;4046;48.774;8.732;2023-07-02T07:36:13;6.77;;;6.07;;
8001;SDS011;4046;48.774;8.732;2023-07-02T07:38:39;6.27;;;5.70;;
8001;SDS011;4046;48.774;8.732;2023-07-02T07:41:06;6.60;;;6.00;;
8001;SDS011;4046;48.774;8.732;2023-07-02T07:43:33;5.67;;;5.17;;
8001;SDS011;4046;48.774;8.732;2023-07-02T07:45:59;5.40;;;5.00;;
8001;SDS011;4046;48.774;8.732;2023-07-02T07:48:28;7.50;;;6.70;;
8001;SDS011;4046;48.774;8.732;2023-07-02T07:50:53;6.03;;;5.53;;
8001;SDS011;4046;48.774;8.732;2023-07-02T07:53:21;6.70;;;6.10;;
8001;SDS011;4046;48.774;8.732;2023-07-02T07:55:47;8.50;;;5.90;;
8001;SDS011;4046;48.774;8.732;2023-07-02T07:58:12;7.50;;;6.80;;
8001;SDS011;4046;48.774;8.732;2023-07-02T08:00:38;6.90;;;6.20;;
8001;SDS011;4046;48.774;8.732;2023-07-02T08:03:04;6.50;;;5.90;;
8001;SDS011;4046;48.774;8.732;2023-07-02T08:05:30;6.40;;;5.90;;
8001;SDS011;4046;48.774;8.732;2023-07-02T08:07:56;6.27;;;5.77;;
8001;SDS011;4046;48.774;8.732;2023-07-02T08:10:23;7.10;;;6.40;;
8001;SDS011;4046;48.774;8.732;2023-07-02T08:12:51;6.80;;;5.97;;
8001;SDS011;4046;48.774;8.732;2023-07-02T08:15:19;6.93;;;6.30;;
8001;SDS011;4046;48.774;8.732;2023-07-02T08:17:45;5.83;;;5.33;;
8001;SDS011;4046;48.774;8.732;2023-07-02T08:20:11;6.30;;;5.80;;
8001;SDS011;4046;48.774;8.732;2023-07-02T08:22:38;6.37;;;5.83;;
8001;SDS011;4046;48.774;8.732;2023-07-02T08:25:06;6.50;;;5.90;;
8001;SDS011;4046;48.774;8.732;2023-07-02T08:27:33;6.17;;;5.57;;
8001;SDS011;4046;48.774;8.732;2023-07-02T08:29:59;5.70;;;5.20;;
8001;SDS011;4046;48.774;8.732;2023-07-02T08:32:26;6.33;;;5.77;;
8001;SDS011;4046;48.774;8.732;2023-07-02T08:34:52;6.00;;;5.50;;
8001;SDS011;4046;48.774;8.732;2023-07-02T08:37:20;7.17;;;6.03;;
8001;SDS011;4046;48.774;8.732;2023-07-02T08:39:46;6.83;;;6.23;;
8001;SDS011;4046;48.774;8.732;2023-07-02T08:42:13;6.50;;;5.90;;
8001;SDS011;4046;48.774;8.732;2023-07-02T08:44:39;7.47;;;5.93;;
8001;SDS011;4046;48.774;8.732;2023-07-02T08:47:06;6.60;;;6.00;;
8001;SDS011;4046;48.774;8.732;2023-07-02T08:49:32;5.90;;;5.40;;
8001;SDS011;4046;48.774;8.732;2023-07-02T08:51:57;7.77;;;7.07;;
8001;SDS011;4046;48.774;8.732;2023-07-02T08:54:25;6.87;;;6.27;;
8001;SDS011;4046;48.774;8.732;2023-07-02T08:56:51;6.80;;;6.20;;
8001;SDS011;4046;48.774;8.732;2023-07-02T08:59:17;7.20;;;6.50;;
8001;SDS011;4046;48.774;8.732;2023-07-02T09:01:49;7.50;;;6.80;;
8001;SDS011;4046;48.774;8.732;2023-07-02T09:04:23;7.80;;;7.13;;
8001;SDS011;4046;48.774;8.732;2023-07-02T09:07:03;7.03;;;6.43;;
8001;SDS011;4046;48.774;8.732;2023-07-02T09:09:33;7.27;;;6.57;;
8001;SDS011;4046;48.774;8.732;2023-07-02T09:12:30;6.67;;;6.07;;
8001;SDS011;4046;48.774;8.732;2023-07-02T09:15:01;8.77;;;7.87;;
8001;SDS011;4046;48.774;8.732;2023-07-02T09:17:35;7.37;;;6.77;;
8001;SDS011;4046;48.774;8.732;2023-07-02T09:20:05;7.20;;;6.60;;
8001;SDS011;4046;48.774;8.732;2023-07-02T09:22:33;7.27;;;6.57;;
8001;SDS011;4046;48.774;8.732;2023-07-02T09:25:00;7.47;;;6.73;;
8001;SDS011;4046;48.774;8.732;2023-07-02T09:27:37;7.43;;;6.83;;
8001;SDS011;4046;48.774;8.732;2023-07-02T09:30:11;7.67;;;7.00;;
8001;SDS011;4046;48.774;8.732;2023-07-02T09:32:39;7.70;;;6.90;;
8001;SDS011;4046;48.774;8.732;2023-07-02T09:35:05;7.00;;;6.40;;
8001;SDS011;4046;48.774;8.732;2023-07-02T09:37:31;7.13;;;6.43;;
8001;SDS011;4046;48.774;8.732;2023-07-02T09:39:57;7.80;;;7.00;;
8001;SDS011;4046;48.774;8.732;2023-07-02T09:42:27;8.03;;;7.33;;
8001;SDS011;4046;48.774;8.732;2023-07-02T09:44:54;7.83;;;7.13;;
8001;SDS011;4046;48.774;8.732;2023-07-02T09:47:21;8.07;;;7.37;;
8001;SDS011;4046;48.774;8.732;2023-07-02T09:49:55;8.07;;;7.37;;
8001;SDS011;4046;48.774;8.732;2023-07-02T09:52:26;8.70;;;7.83;;
8001;SDS011;4046;48.774;8.732;2023-07-02T09:54:55;9.77;;;7.03;;
8001;SDS011;4046;48.774;8.732;2023-07-02T09:57:21;8.43;;;7.70;;
8001;SDS011;4046;48.774;8.732;2023-07-02T09:59:47;7.63;;;6.90;;
8001;SDS011;4046;48.774;8.732;2023-07-02T10:02:14;7.50;;;6.90;;
8001;SDS011;4046;48.774;8.732;2023-07-02T10:04:44;8.40;;;7.60;;
8001;SDS011;4046;48.774;8.732;2023-07-02T10:07:27;9.07;;;8.23;;
8001;SDS011;4046;48.774;8.732;2023-07-02T10:09:58;8.97;;;8.07;;
8001;SDS011;4046;48.774;8.732;2023-07-02T10:12:25;8.10;;;7.40;;
8001;SDS011;4046;48.774;8.732;2023-07-02T10:14:53;9.03;;;8.13;;
8001;SDS011;4046;48.774;8.732;2023-07-02T10:17:24;8.00;;;7.20;;
8001;SDS011;4046;48.774;8.732;2023-07-02T10:19:51;7.80;;;7.10;;
8001;SDS011;4046;48.774;8.732;2023-07-02T10:22:18;8.40;;;7.57;;
8001;SDS011;4046;48.774;8.732;2023-07-02T10:25:23;8.50;;;7.70;;
8001;SDS011;4046;48.774;8.732;2023-07-02T10:27:37;7.77;;;7.03;;
8001;SDS011;4046;48.774;8.732;2023-07-02T10:30:09;7.90;;;7.20;;
8001;SDS011;4046;48.774;8.732;2023-07-02T10:32:37;8.67;;;7.70;;
8001;SDS011;4046;48.774;8.732;2023-07-02T10:35:15;7.80;;;7.00;;
8001;SDS011;4046;48.774;8.732;2023-07-02T10:37:43;8.33;;;7.63;;
8001;SDS011;4046;48.774;8.732;2023-07-02T10:40:09;8.77;;;8.00;;
8001;SDS011;4046;48.774;8.732;2023-07-02T10:42:48;8.73;;;7.93;;
8001;SDS011;4046;48.774;8.732;2023-07-02T10:45:17;9.23;;;8.43;;
8001;SDS011;4046;48.774;8.732;2023-07-02T10:47:43;8.60;;;7.80;;
8001;SDS011;4046;48.774;8.732;2023-07-02T10:50:13;8.17;;;7.40;;
8001;SDS011;4046;48.774;8.732;2023-07-02T10:52:46;8.30;;;7.50;;
8001;SDS011;4046;48.774;8.732;2023-07-02T10:55:19;8.63;;;7.93;;
8001;SDS011;4046;48.774;8.732;2023-07-02T10:57:48;7.97;;;7.27;;
8001;SDS011;4046;48.774;8.732;2023-07-02T11:00:16;7.90;;;7.20;;
8001;SDS011;4046;48.774;8.732;2023-07-02T11:02:43;8.60;;;7.80;;
8001;SDS011;4046;48.774;8.732;2023-07-02T11:05:09;8.53;;;7.70;;
8001;SDS011;4046;48.774;8.732;2023-07-02T11:07:39;8.03;;;7.23;;
8001;SDS011;4046;48.774;8.732;2023-07-02T11:10:08;9.37;;;8.43;;
8001;SDS011;4046;48.774;8.732;2023-07-02T11:12:35;9.43;;;8.63;;
8001;SDS011;4046;48.774;8.732;2023-07-02T11:15:12;8.00;;;7.23;;
8001;SDS011;4046;48.774;8.732;2023-07-02T11:17:41;8.60;;;7.90;;
8001;SDS011;4046;48.774;8.732;2023-07-02T11:20:08;9.67;;;8.63;;
8001;SDS011;4046;48.774;8.732;2023-07-02T11:22:35;8.63;;;7.90;;
8001;SDS011;4046;48.774;8.732;2023-07-02T11:25:09;9.00;;;8.20;;
8001;SDS011;4046;48.774;8.732;2023-07-02T11:27:39;9.90;;;8.73;;
8001;SDS011;4046;48.774;8.732;2023-07-02T11:30:06;10.00;;;9.00;;
8001;SDS011;4046;48.774;8.732;2023-07-02T11:35:21;13.93;;;9.40;;
8001;SDS011;4046;48.774;8.732;2023-07-02T11:37:48;9.57;;;7.83;;
8001;SDS011;4046;48.774;8.732;2023-07-02T11:40:18;9.83;;;8.13;;
8001;SDS011;4046;48.774;8.732;2023-07-02T11:42:45;9.40;;;8.37;;
8001;SDS011;4046;48.774;8.732;2023-07-02T11:45:11;9.73;;;8.73;;
8001;SDS011;4046;48.774;8.732;2023-07-02T11:47:37;10.87;;;8.67;;
8001;SDS011;4046;48.774;8.732;2023-07-02T11:50:04;12.10;;;8.90;;
8001;SDS011;4046;48.774;8.732;2023-07-02T11:52:32;9.23;;;8.43;;
8001;SDS011;4046;48.774;8.732;2023-07-02T11:54:57;10.07;;;9.13;;
8001;SDS011;4046;48.774;8.732;2023-07-02T11:57:23;9.97;;;8.97;;
8001;SDS011;4046;48.774;8.732;2023-07-02T11:59:49;9.13;;;8.23;;
8001;SDS011;4046;48.774;8.732;2023-07-02T12:02:15;11.23;;;8.90;;
8001;SDS011;4046;48.774;8.732;2023-07-02T12:04:41;9.43;;;8.53;;
8001;SDS011;4046;48.774;8.732;2023-07-02T12:07:08;10.53;;;9.07;;
8001;SDS011;4046;48.774;8.732;2023-07-02T12:09:34;9.37;;;8.40;;
8001;SDS011;4046;48.774;8.732;2023-07-02T12:11:59;9.80;;;8.90;;
8001;SDS011;4046;48.774;8.732;2023-07-02T12:14:25;8.83;;;7.93;;
8001;SDS011;4046;48.774;8.732;2023-07-02T12:16:51;9.87;;;8.90;;
8001;SDS011;4046;48.774;8.732;2023-07-02T12:19:17;8.80;;;8.00;;
8001;SDS011;4046;48.774;8.732;2023-07-02T12:21:43;10.43;;;9.43;;
8001;SDS011;4046;48.774;8.732;2023-07-02T12:24:12;11.20;;;8.80;;
8001;SDS011;4046;48.774;8.732;2023-07-02T12:26:39;10.00;;;9.03;;
8001;SDS011;4046;48.774;8.732;2023-07-02T12:29:05;9.70;;;8.70;;
8001;SDS011;4046;48.774;8.732;2023-07-02T12:31:31;13.87;;;9.20;;
8001;SDS011;4046;48.774;8.732;2023-07-02T12:33:57;8.73;;;7.90;;
8001;SDS011;4046;48.774;8.732;2023-07-02T12:36:23;11.00;;;9.63;;
8001;SDS011;4046;48.774;8.732;2023-07-02T12:38:49;10.17;;;9.17;;
8001;SDS011;4046;48.774;8.732;2023-07-02T12:41:15;9.67;;;8.83;;
8001;SDS011;4046;48.774;8.732;2023-07-02T12:43:41;9.23;;;8.37;;
8001;SDS011;4046;48.774;8.732;2023-07-02T12:46:07;9.63;;;8.63;;
8001;SDS011;4046;48.774;8.732;2023-07-02T12:48:32;10.17;;;9.20;;
8001;SDS011;4046;48.774;8.732;2023-07-02T12:50:59;10.57;;;9.57;;
8001;SDS011;4046;48.774;8.732;2023-07-02T12:53:26;9.57;;;8.63;;
8001;SDS011;4046;48.774;8.732;2023-07-02T12:55:54;10.17;;;9.27;;
8001;SDS011;4046;48.774;8.732;2023-07-02T12:58:22;9.90;;;9.00;;
8001;SDS011;4046;48.774;8.732;2023-07-02T13:00:48;9.53;;;8.63;;
8001;SDS011;4046;48.774;8.732;2023-07-02T13:03:16;9.60;;;8.70;;
8001;SDS011;4046;48.774;8.732;2023-07-02T13:05:42;10.57;;;9.67;;
8001;SDS011;4046;48.774;8.732;2023-07-02T13:08:09;10.47;;;9.47;;
8001;SDS011;4046;48.774;8.732;2023-07-02T13:10:35;10.50;;;9.40;;
8001;SDS011;4046;48.774;8.732;2023-07-02T13:13:01;11.40;;;10.30;;
8001;SDS011;4046;48.774;8.732;2023-07-02T13:15:27;9.90;;;9.00;;
8001;SDS011;4046;48.774;8.732;2023-07-02T13:17:53;10.53;;;9.53;;
8001;SDS011;4046;48.774;8.732;2023-07-02T13:20:20;10.40;;;9.50;;
8001;SDS011;4046;48.774;8.732;2023-07-02T13:22:46;9.90;;;8.90;;
8001;SDS011;4046;48.774;8.732;2023-07-02T13:25:11;10.00;;;9.00;;
8001;SDS011;4046;48.774;8.732;2023-07-02T13:27:37;10.73;;;9.80;;
8001;SDS011;4046;48.774;8.732;2023-07-02T13:30:03;9.87;;;8.90;;
8001;SDS011;4046;48.774;8.732;2023-07-02T13:32:30;10.07;;;9.17;;
8001;SDS011;4046;48.774;8.732;2023-07-02T13:34:57;10.40;;;9.40;;
8001;SDS011;4046;48.774;8.732;2023-07-02T13:37:23;10.37;;;9.47;;
8001;SDS011;4046;48.774;8.732;2023-07-02T13:39:48;10.57;;;9.57;;
8001;SDS011;4046;48.774;8.732;2023-07-02T13:42:16;9.33;;;8.50;;
8001;SDS011;4046;48.774;8.732;2023-07-02T13:44:42;10.40;;;9.53;;
8001;SDS011;4046;48.774;8.732;2023-07-02T13:47:10;9.33;;;8.53;;
8001;SDS011;4046;48.774;8.732;2023-07-02T13:49:36;10.40;;;9.30;;
8001;SDS011;4046;48.774;8.732;2023-07-02T13:52:02;11.37;;;10.33;;
8001;SDS011;4046;48.774;8.732;2023-07-02T13:54:28;10.50;;;9.60;;
8001;SDS011;4046;48.774;8.732;2023-07-02T13:56:57;10.03;;;9.07;;
8001;SDS011;4046;48.774;8.732;2023-07-02T13:59:23;9.53;;;8.70;;
8001;SDS011;4046;48.774;8.732;2023-07-02T14:01:48;10.60;;;9.57;;
8001;SDS011;4046;48.774;8.732;2023-07-02T14:04:15;10.10;;;9.20;;
8001;SDS011;4046;48.774;8.732;2023-07-02T14:06:42;10.97;;;9.87;;
8001;SDS011;4046;48.774;8.732;2023-07-02T14:09:08;9.87;;;9.07;;
8001;SDS011;4046;48.774;8.732;2023-07-02T14:11:35;10.50;;;9.50;;
8001;SDS011;4046;48.774;8.732;2023-07-02T14:14:05;10.00;;;9.10;;
8001;SDS011;4046;48.774;8.732;2023-07-02T14:16:31;10.23;;;9.23;;
8001;SDS011;4046;48.774;8.732;2023-07-02T14:18:59;10.87;;;9.87;;
8001;SDS011;4046;48.774;8.732;2023-07-02T14:21:24;10.60;;;9.70;;
8001;SDS011;4046;48.774;8.732;2023-07-02T14:23:50;9.93;;;9.03;;
8001;SDS011;4046;48.774;8.732;2023-07-02T14:26:16;11.10;;;10.00;;
8001;SDS011;4046;48.774;8.732;2023-07-02T14:28:42;9.40;;;8.60;;
8001;SDS011;4046;48.774;8.732;2023-07-02T14:31:08;10.47;;;9.47;;
8001;SDS011;4046;48.774;8.732;2023-07-02T14:33:34;10.00;;;9.20;;
8001;SDS011;4046;48.774;8.732;2023-07-02T14:36:02;9.80;;;8.90;;
8001;SDS011;4046;48.774;8.732;2023-07-02T14:38:29;10.23;;;9.23;;
8001;SDS011;4046;48.774;8.732;2023-07-02T14:40:57;10.07;;;9.17;;
8001;SDS011;4046;48.774;8.732;2023-07-02T14:43:25;10.70;;;9.67;;
8001;SDS011;4046;48.774;8.732;2023-07-02T14:45:52;10.90;;;9.90;;
8001;SDS011;4046;48.774;8.732;2023-07-02T14:48:19;9.80;;;9.00;;
8001;SDS011;4046;48.774;8.732;2023-07-02T14:50:50;10.67;;;9.57;;
8001;SDS011;4046;48.774;8.732;2023-07-02T14:53:17;10.60;;;9.70;;
8001;SDS011;4046;48.774;8.732;2023-07-02T14:55:44;11.00;;;10.07;;
8001;SDS011;4046;48.774;8.732;2023-07-02T14:58:11;11.57;;;10.47;;
8001;SDS011;4046;48.774;8.732;2023-07-02T15:00:43;10.23;;;9.30;;
8001;SDS011;4046;48.774;8.732;2023-07-02T15:03:17;10.70;;;9.80;;
8001;SDS011;4046;48.774;8.732;2023-07-02T15:05:46;9.77;;;8.87;;
8001;SDS011;4046;48.774;8.732;2023-07-02T15:08:13;10.40;;;9.40;;
8001;SDS011;4046;48.774;8.732;2023-07-02T15:10:39;11.07;;;9.97;;
8001;SDS011;4046;48.774;8.732;2023-07-02T15:13:06;10.50;;;9.50;;
8001;SDS011;4046;48.774;8.732;2023-07-02T15:15:32;9.17;;;8.27;;